createdAt,value
2019-04-05T00:02:18.583Z,9.70
2019-04-05T00:07:23.903Z,11.83
2019-04-05T00:12:29.204Z,10.87
2019-04-05T00:17:34.512Z,11.47
2019-04-05T00:22:39.821Z,10.70
2019-04-05T00:27:46.091Z,6.90
2019-04-05T00:32:51.488Z,11.57
2019-04-05T00:37:56.798Z,7.10
2019-04-05T00:43:02.143Z,8.60
2019-04-05T00:48:07.445Z,4.57
2019-04-05T00:53:12.748Z,9.73
2019-04-05T00:58:18.048Z,10.33
2019-04-05T01:03:23.368Z,9.17
2019-04-05T01:08:28.667Z,9.50
2019-04-05T01:13:34.059Z,10.20
2019-04-05T01:18:39.360Z,9.83
2019-04-05T01:23:44.661Z,10.33
2019-04-05T01:28:50.043Z,10.87
2019-04-05T01:33:55.439Z,7.77
2019-04-05T01:39:00.887Z,10.47
2019-04-05T01:44:07.800Z,10.47
2019-04-05T01:49:13.171Z,10.37
2019-04-05T01:54:18.483Z,11.07
2019-04-05T01:59:23.723Z,10.70
2019-04-05T02:04:29.061Z,10.17
2019-04-05T02:09:34.551Z,12.33
2019-04-05T02:14:39.851Z,9.57
2019-04-05T02:19:45.148Z,11.07
2019-04-05T02:24:50.454Z,11.17
2019-04-05T02:29:55.756Z,11.13
2019-04-05T02:35:01.082Z,11.23
2019-04-05T02:40:11.141Z,11.63
2019-04-05T02:45:18.521Z,11.40
2019-04-05T02:50:26.683Z,12.03
2019-04-05T02:55:32.989Z,11.27
2019-04-05T03:00:38.613Z,12.90
2019-04-05T03:05:45.145Z,11.73
2019-04-05T03:11:06.843Z,11.60
2019-04-05T03:16:18.846Z,10.03
2019-04-05T03:21:26.209Z,10.97
2019-04-05T03:26:34.820Z,10.67
2019-04-05T03:31:40.642Z,12.47
2019-04-05T03:36:46.329Z,12.33
2019-04-05T03:41:52.956Z,13.67
2019-04-05T03:46:58.327Z,12.77
2019-04-05T03:52:05.615Z,11.87
2019-04-05T03:57:11.077Z,14.00
2019-04-05T04:02:16.514Z,13.97
2019-04-05T04:07:21.923Z,12.50
2019-04-05T04:12:27.437Z,11.80
2019-04-05T04:17:32.727Z,11.00
2019-04-05T04:22:38.124Z,11.30
2019-04-05T04:27:43.516Z,9.50
2019-04-05T04:32:48.913Z,9.27
2019-04-05T04:37:54.329Z,9.00
2019-04-05T04:43:01.931Z,12.17
2019-04-05T04:48:07.817Z,10.93
2019-04-05T04:53:13.223Z,9.60
2019-04-05T04:58:18.541Z,9.23
2019-04-05T05:03:23.990Z,10.23
2019-04-05T05:08:29.268Z,9.73
2019-04-05T05:13:34.596Z,5.37
2019-04-05T05:18:40.428Z,11.37
2019-04-05T05:23:46.055Z,10.03
2019-04-05T05:28:51.978Z,13.63
2019-04-05T05:33:57.414Z,10.87
2019-04-05T05:39:02.841Z,11.47
2019-04-05T05:44:08.304Z,11.10
2019-04-05T05:49:13.621Z,10.10
2019-04-05T05:54:20.018Z,5.50
2019-04-05T05:59:25.361Z,12.73
2019-04-05T06:04:30.730Z,11.10
2019-04-05T06:09:36.050Z,11.03
2019-04-05T06:14:42.510Z,7.43
2019-04-05T06:19:50.058Z,5.07
2019-04-05T06:24:55.341Z,10.07
2019-04-05T06:30:02.949Z,11.83
2019-04-05T06:35:08.443Z,12.97
2019-04-05T06:40:14.866Z,13.33
2019-04-05T06:45:20.195Z,10.20
2019-04-05T06:50:25.551Z,12.27
2019-04-05T06:55:30.842Z,11.23
2019-04-05T07:00:36.161Z,11.87
2019-04-05T07:05:41.483Z,12.63
2019-04-05T07:10:46.860Z,10.50
2019-04-05T07:15:52.315Z,13.17
2019-04-05T07:20:58.046Z,9.53
2019-04-05T07:26:04.095Z,13.10
2019-04-05T07:31:09.456Z,12.77
2019-04-05T07:36:14.909Z,13.70
2019-04-05T07:41:23.208Z,12.73
2019-04-05T07:46:28.608Z,13.63
2019-04-05T07:51:33.985Z,10.40
2019-04-05T07:56:39.465Z,13.33
2019-04-05T08:01:44.853Z,11.63
2019-04-05T08:06:50.909Z,12.37
2019-04-05T08:11:56.569Z,13.17
2019-04-05T08:17:01.908Z,13.23
2019-04-05T08:22:07.306Z,12.37
2019-04-05T08:27:12.647Z,13.03
2019-04-05T08:32:18.014Z,14.47
2019-04-05T08:37:23.420Z,14.43
2019-04-05T08:42:28.805Z,12.77
2019-04-05T08:47:34.324Z,13.47
2019-04-05T08:52:39.635Z,14.87
2019-04-05T08:57:47.915Z,14.53
2019-04-05T09:02:52.088Z,12.90
2019-04-05T09:07:57.549Z,12.53
2019-04-05T09:13:02.936Z,13.33
2019-04-05T09:18:08.329Z,12.90
2019-04-05T09:23:13.712Z,14.43
2019-04-05T09:28:19.133Z,13.30
2019-04-05T09:33:24.510Z,15.03
2019-04-05T09:38:29.864Z,14.67
2019-04-05T09:43:35.331Z,14.57
2019-04-05T09:48:40.689Z,14.00
2019-04-05T09:53:46.098Z,13.77
2019-04-05T09:58:51.392Z,13.40
2019-04-05T10:03:56.831Z,14.20
2019-04-05T10:09:02.168Z,13.77
2019-04-05T10:14:09.813Z,14.03
2019-04-05T10:19:15.193Z,13.50
2019-04-05T10:24:20.579Z,13.70
2019-04-05T10:29:26.033Z,14.20
2019-04-05T10:34:31.418Z,13.77
2019-04-05T10:39:36.755Z,13.20
2019-04-05T10:44:42.182Z,15.97
2019-04-05T10:49:47.548Z,14.37
2019-04-05T10:54:52.890Z,19.17
2019-04-05T10:59:58.301Z,14.47
2019-04-05T11:05:03.952Z,15.33
2019-04-05T11:10:10.908Z,14.70
2019-04-05T11:15:16.862Z,14.03
2019-04-05T11:20:22.735Z,15.43
2019-04-05T11:25:28.127Z,14.90
2019-04-05T11:30:44.539Z,14.83
2019-04-05T11:35:49.937Z,14.90
2019-04-05T11:40:56.334Z,14.50
2019-04-05T11:46:02.222Z,13.03
2019-04-05T11:51:07.543Z,15.07
2019-04-05T11:56:14.853Z,14.83
2019-04-05T12:01:37.012Z,14.60
2019-04-05T12:06:42.419Z,15.50
2019-04-05T12:11:47.816Z,15.43
2019-04-05T12:16:53.242Z,15.17
2019-04-05T12:21:58.672Z,11.33
2019-04-05T12:27:04.839Z,13.87
2019-04-05T12:32:13.278Z,15.10
2019-04-05T12:37:17.984Z,14.87
2019-04-05T12:42:23.373Z,14.43
2019-04-05T12:47:28.776Z,15.57
2019-04-05T12:52:34.165Z,16.53
2019-04-05T12:57:39.533Z,15.60
2019-04-05T13:02:47.794Z,13.93
2019-04-05T13:07:53.405Z,15.37
2019-04-05T13:12:59.303Z,15.83
2019-04-05T13:18:04.805Z,12.17
2019-04-05T13:23:11.112Z,12.90
2019-04-05T13:28:18.969Z,15.33
2019-04-05T13:33:24.055Z,16.33
2019-04-05T13:38:29.834Z,16.03
2019-04-05T13:43:35.673Z,15.93
2019-04-05T13:48:41.074Z,16.97
2019-04-05T13:53:46.472Z,17.40
2019-04-05T13:58:51.804Z,19.73
2019-04-05T14:03:59.136Z,18.40
2019-04-05T14:09:05.655Z,18.23
2019-04-05T14:14:12.232Z,19.07
2019-04-05T14:19:19.219Z,17.63
2019-04-05T14:24:24.689Z,17.43
2019-04-05T14:29:33.198Z,17.67
2019-04-05T14:34:37.065Z,17.07
2019-04-05T14:39:42.406Z,19.43
2019-04-05T14:44:47.817Z,19.53
2019-04-05T14:49:53.223Z,18.60
2019-04-05T14:55:00.073Z,18.13
2019-04-05T15:00:06.324Z,17.90
2019-04-05T15:05:12.120Z,17.03
2019-04-05T15:10:17.426Z,18.47
2019-04-05T15:15:22.766Z,17.33
2019-04-05T15:20:28.179Z,17.10
2019-04-05T15:25:33.677Z,16.63
2019-04-05T15:30:39.023Z,18.73
2019-04-05T15:35:44.348Z,18.57
2019-04-05T15:40:49.641Z,18.40
2019-04-05T15:45:54.990Z,15.77
2019-04-05T15:51:00.297Z,17.17
2019-04-05T15:56:05.606Z,17.00
2019-04-05T16:01:11.242Z,17.90
2019-04-05T16:06:16.633Z,16.33
2019-04-05T16:11:22.084Z,16.43
2019-04-05T16:16:28.072Z,17.03
2019-04-05T16:21:33.778Z,15.77
2019-04-05T16:26:39.864Z,17.17
2019-04-05T16:31:45.198Z,15.63
2019-04-05T16:36:50.533Z,16.67
2019-04-05T16:41:55.881Z,16.50
2019-04-05T16:47:19.904Z,16.23
2019-04-05T16:52:44.087Z,23.70
2019-04-05T16:57:43.001Z,16.47
2019-04-05T17:02:57.005Z,29.27
2019-04-05T17:08:03.014Z,16.27
2019-04-05T17:13:09.000Z,30.27
2019-04-05T17:18:14.785Z,21.23
2019-04-05T17:23:20.709Z,23.20
2019-04-05T17:28:26.365Z,21.37
2019-04-05T17:33:31.689Z,17.53
2019-04-05T17:38:37.105Z,17.40
2019-04-05T17:43:42.888Z,20.03
2019-04-05T17:48:51.711Z,18.37
2019-04-05T17:53:56.510Z,17.50
2019-04-05T17:59:02.685Z,17.27
2019-04-05T18:04:08.034Z,17.03
2019-04-05T18:09:13.347Z,16.90
2019-04-05T18:14:18.736Z,17.90
2019-04-05T18:19:24.117Z,19.30
2019-04-05T18:24:29.457Z,21.60
2019-04-05T18:29:34.761Z,21.77
2019-04-05T18:34:40.090Z,20.83
2019-04-05T18:39:45.396Z,23.97
2019-04-05T18:44:50.735Z,27.40
2019-04-05T18:50:02.759Z,22.27
2019-04-05T18:55:02.985Z,19.37
2019-04-05T19:00:09.021Z,19.17
2019-04-05T19:05:14.539Z,17.97
2019-04-05T19:10:20.556Z,18.27
2019-04-05T19:15:25.851Z,18.00
2019-04-05T19:20:31.175Z,19.97
2019-04-05T19:25:36.561Z,18.60
2019-04-05T19:51:09.841Z,18.23
2019-04-05T19:56:15.209Z,18.57
2019-04-05T20:01:20.550Z,18.27
2019-04-05T20:06:25.877Z,18.77
2019-04-05T20:11:31.207Z,18.77
2019-04-05T20:16:36.536Z,18.90
2019-04-05T20:21:41.915Z,17.20
2019-04-05T20:26:47.344Z,19.73
2019-04-05T20:31:52.652Z,18.87
2019-04-05T20:36:58.076Z,19.17
2019-04-05T20:42:03.385Z,18.90
2019-04-05T20:47:08.722Z,18.90
2019-04-05T20:52:15.132Z,18.20
2019-04-05T20:57:20.510Z,20.87
2019-04-05T21:02:25.789Z,18.47
2019-04-05T21:07:32.187Z,18.93
2019-04-05T21:12:37.554Z,18.40
2019-04-05T21:17:42.865Z,17.30
2019-04-05T21:22:48.229Z,17.27
2019-04-05T21:27:53.906Z,17.87
2019-04-05T21:32:59.342Z,17.93
2019-04-05T21:38:05.149Z,17.00
2019-04-05T21:43:10.639Z,16.60
2019-04-05T21:48:16.201Z,16.97
2019-04-05T21:53:23.492Z,17.50
2019-04-05T21:58:28.953Z,17.50
2019-04-05T22:03:35.347Z,17.77
2019-04-05T22:08:40.714Z,18.47
2019-04-05T22:13:46.265Z,16.23
2019-04-05T22:18:52.702Z,17.20
2019-04-05T22:23:58.062Z,17.23
2019-04-05T22:29:06.325Z,17.83
2019-04-05T22:34:12.914Z,17.10
2019-04-05T22:39:18.258Z,17.43
2019-04-05T22:44:24.676Z,16.10
2019-04-05T22:49:30.429Z,18.30
2019-04-05T22:54:35.885Z,16.97
2019-04-05T22:59:42.448Z,17.47
2019-04-05T23:04:47.771Z,17.47
2019-04-05T23:09:54.033Z,17.77
2019-04-05T23:14:59.782Z,16.70
2019-04-05T23:20:07.211Z,18.20
2019-04-05T23:25:21.878Z,17.50
2019-04-05T23:30:22.133Z,17.37
2019-04-05T23:35:27.469Z,17.70
2019-04-05T23:40:34.666Z,17.53
2019-04-05T23:45:40.213Z,17.03
2019-04-05T23:50:45.974Z,18.10
2019-04-05T23:55:52.347Z,17.40
